Time;durP1;ratioP1;P1;durP2;ratioP2;P2;SDS_P1;SDS_P2;PMS_P1;PMS_P2;Temp;Humidity;BMP_temperature;BMP_pressure;BME280_temperature;BME280_humidity;BME280_pressure;Samples;Min_cycle;Max_cycle;Signal;HPM_P1;HPM_P2
2022/03/04 00:02:16;;;;;;;26.90;16.97;;;0.20;99.90;;;;;;5113952;28;20172;-61
2022/03/04 00:04:42;;;;;;;22.63;15.83;;;0.20;99.90;;;;;;5113565;28;20612;-62
2022/03/04 00:07:08;;;;;;;25.13;16.50;;;0.10;99.90;;;;;;5114059;28;20256;-61
2022/03/04 00:09:34;;;;;;;24.87;16.90;;;0.20;99.90;;;;;;5113316;28;20631;-62
2022/03/04 00:12:03;;;;;;;25.10;17.73;;;0.30;99.90;;;;;;5113312;28;20176;-61
2022/03/04 00:14:29;;;;;;;24.57;16.40;;;0.30;99.90;;;;;;5113288;28;20200;-62
2022/03/04 00:16:55;;;;;;;25.17;16.03;;;0.30;99.90;;;;;;5113372;28;20494;-62
2022/03/04 00:19:21;;;;;;;26.10;16.40;;;0.30;99.90;;;;;;5113323;28;20264;-62
2022/03/04 00:21:49;;;;;;;23.43;16.40;;;0.30;99.90;;;;;;5115372;28;20172;-62
2022/03/04 00:24:16;;;;;;;25.43;17.80;;;0.30;99.90;;;;;;5115602;28;20279;-62
2022/03/04 00:26:42;;;;;;;24.67;17.10;;;0.20;99.90;;;;;;5116937;28;20579;-62
2022/03/04 00:29:09;;;;;;;23.33;15.93;;;0.20;99.90;;;;;;5116869;28;20176;-62
2022/03/04 00:31:35;;;;;;;22.20;15.87;;;0.30;99.90;;;;;;5116672;28;20640;-62
2022/03/04 00:34:02;;;;;;;24.50;16.83;;;0.20;99.90;;;;;;5115369;28;20311;-62
2022/03/04 00:36:28;;;;;;;21.20;15.30;;;0.20;99.90;;;;;;5117117;28;20200;-62
2022/03/04 00:38:56;;;;;;;26.10;17.10;;;0.30;99.90;;;;;;5117040;28;20202;-62
2022/03/04 00:41:23;;;;;;;24.50;16.57;;;0.30;99.90;;;;;;5116818;28;20629;-61
2022/03/04 00:43:50;;;;;;;24.90;17.67;;;0.30;99.90;;;;;;5116748;28;20606;-61
2022/03/04 00:46:17;;;;;;;24.87;16.80;;;0.20;99.90;;;;;;5115258;28;20180;-62
2022/03/04 00:48:44;;;;;;;25.77;17.37;;;0.10;99.90;;;;;;5116692;28;20177;-61
2022/03/04 00:51:11;;;;;;;25.27;16.60;;;0.10;99.90;;;;;;5116647;28;20206;-61
2022/03/04 00:53:37;;;;;;;26.47;17.77;;;0.10;99.90;;;;;;5116592;28;20650;-62
2022/03/04 00:56:05;;;;;;;28.30;17.93;;;0.10;99.90;;;;;;5116204;28;20202;-62
2022/03/04 00:58:31;;;;;;;24.17;17.17;;;0.00;99.90;;;;;;5116271;28;20175;-62
2022/03/04 01:00:56;;;;;;;23.57;16.83;;;-0.10;99.90;;;;;;5116506;27;20169;-62
2022/03/04 01:03:22;;;;;;;26.17;17.73;;;-0.10;99.90;;;;;;5116312;28;20184;-62
2022/03/04 01:05:48;;;;;;;23.67;17.07;;;-0.10;99.90;;;;;;5116092;28;20177;-61
2022/03/04 01:08:14;;;;;;;30.60;18.37;;;-0.20;99.90;;;;;;5116166;28;20661;-62
2022/03/04 01:10:39;;;;;;;25.23;16.87;;;-0.40;99.90;;;;;;5114671;28;20224;-62
2022/03/04 01:13:05;;;;;;;26.47;18.03;;;-0.40;99.90;;;;;;5114582;28;20183;-61
2022/03/04 01:15:31;;;;;;;25.33;18.10;;;-0.50;99.90;;;;;;5115863;28;20196;-62
2022/03/04 01:17:56;;;;;;;25.50;17.57;;;-0.50;99.90;;;;;;5115973;28;20176;-62
2022/03/04 01:20:23;;;;;;;29.50;17.77;;;-0.50;99.90;;;;;;5115857;28;20169;-61
2022/03/04 01:22:49;;;;;;;30.07;18.03;;;-0.60;99.90;;;;;;5115855;28;20172;-62
2022/03/04 01:25:15;;;;;;;23.57;17.93;;;-0.50;99.90;;;;;;5115828;27;20199;-61
2022/03/04 01:27:41;;;;;;;26.50;17.37;;;-0.60;99.90;;;;;;5116261;28;20570;-61
2022/03/04 01:30:09;;;;;;;25.57;17.20;;;-0.60;99.90;;;;;;5115847;28;20202;-61
2022/03/04 01:32:36;;;;;;;24.90;17.00;;;-0.70;99.90;;;;;;5113502;28;20668;-61
2022/03/04 01:35:02;;;;;;;25.30;15.83;;;-0.60;99.90;;;;;;5115378;28;20204;-62
2022/03/04 01:37:28;;;;;;;25.10;18.03;;;-0.50;99.90;;;;;;5115468;28;20173;-62
2022/03/04 01:39:54;;;;;;;30.07;17.87;;;-0.60;99.90;;;;;;5115664;28;20637;-61
2022/03/04 01:42:20;;;;;;;26.17;17.43;;;-0.60;99.90;;;;;;5115955;27;20194;-61
2022/03/04 01:44:46;;;;;;;24.50;15.73;;;-0.60;99.90;;;;;;5114179;28;20196;-61
2022/03/04 01:47:12;;;;;;;24.10;16.03;;;-0.70;99.90;;;;;;5115750;28;20641;-61
2022/03/04 01:49:41;;;;;;;26.57;18.00;;;-0.80;99.90;;;;;;5115388;28;20260;-61
2022/03/04 01:52:08;;;;;;;27.57;18.43;;;-0.90;99.90;;;;;;5115331;28;20250;-61
2022/03/04 01:54:34;;;;;;;23.07;16.77;;;-0.90;99.90;;;;;;5115260;28;20203;-61
2022/03/04 01:57:00;;;;;;;28.27;17.43;;;-0.90;99.90;;;;;;5114074;28;20221;-61
2022/03/04 01:59:26;;;;;;;23.90;17.33;;;-0.90;99.90;;;;;;5115147;28;20248;-61
2022/03/04 02:01:53;;;;;;;27.00;17.13;;;-0.90;99.90;;;;;;5114140;28;20172;-61
2022/03/04 02:04:23;;;;;;;28.33;18.60;;;-0.80;99.90;;;;;;5115164;28;20652;-61
2022/03/04 02:06:49;;;;;;;29.53;17.33;;;-0.80;99.90;;;;;;5115522;28;20176;-62
2022/03/04 02:09:15;;;;;;;25.90;17.33;;;-0.70;99.90;;;;;;5114440;28;20609;-62
2022/03/04 02:11:43;;;;;;;27.20;17.93;;;-0.80;99.90;;;;;;5115174;28;20750;-61
2022/03/04 02:14:13;;;;;;;25.90;17.77;;;-0.90;99.90;;;;;;5114773;28;20188;-60
2022/03/04 02:16:41;;;;;;;22.20;17.10;;;-1.00;99.90;;;;;;5115387;28;20180;-61
2022/03/04 02:19:06;;;;;;;29.37;18.00;;;-1.00;99.90;;;;;;5114941;28;20169;-61
2022/03/04 02:21:33;;;;;;;27.43;17.00;;;-1.10;99.90;;;;;;5115160;28;20179;-61
2022/03/04 02:24:00;;;;;;;27.97;19.23;;;-1.00;99.90;;;;;;5114969;28;20200;-61
2022/03/04 02:26:25;;;;;;;24.73;17.30;;;-1.00;99.90;;;;;;5114623;28;20177;-61
2022/03/04 02:28:51;;;;;;;27.17;17.57;;;-1.00;99.90;;;;;;5114649;28;20173;-62
2022/03/04 02:31:19;;;;;;;24.23;17.63;;;-0.90;99.90;;;;;;5114369;28;20187;-62
2022/03/04 02:33:46;;;;;;;25.37;18.00;;;-0.90;99.90;;;;;;5114492;28;20191;-62
2022/03/04 02:36:12;;;;;;;25.97;17.80;;;-0.80;99.90;;;;;;5114624;28;20188;-61
2022/03/04 02:38:38;;;;;;;28.13;18.47;;;-0.90;99.90;;;;;;5113143;28;20179;-61
2022/03/04 02:41:04;;;;;;;26.03;18.43;;;-1.00;99.90;;;;;;5114365;28;20532;-62
2022/03/04 02:43:30;;;;;;;27.47;17.67;;;-1.20;99.90;;;;;;5114464;28;20307;-61
2022/03/04 02:45:56;;;;;;;25.07;16.77;;;-1.30;99.90;;;;;;5114538;28;20177;-61
2022/03/04 02:48:22;;;;;;;28.37;18.90;;;-1.20;99.90;;;;;;5114265;28;20179;-62
2022/03/04 02:50:48;;;;;;;26.70;17.63;;;-1.10;99.90;;;;;;5114231;28;20177;-62
2022/03/04 02:53:13;;;;;;;29.47;18.07;;;-1.10;99.90;;;;;;5112819;28;20255;-62
2022/03/04 02:55:39;;;;;;;30.10;18.00;;;-1.10;99.90;;;;;;5114784;28;20683;-62
2022/03/04 02:58:05;;;;;;;22.20;16.97;;;-1.10;99.90;;;;;;5113127;28;20225;-61
2022/03/04 03:00:31;;;;;;;26.33;17.87;;;-1.10;99.90;;;;;;5114153;27;20169;-61
2022/03/04 03:02:57;;;;;;;26.17;18.03;;;-1.10;99.90;;;;;;5114074;28;20539;-61
2022/03/04 03:05:23;;;;;;;27.43;18.33;;;-1.10;99.90;;;;;;5112692;28;20200;-62
2022/03/04 03:07:49;;;;;;;29.17;18.93;;;-1.20;99.90;;;;;;5112930;28;20564;-61
2022/03/04 03:10:15;;;;;;;26.80;17.23;;;-1.30;99.90;;;;;;5113955;28;20183;-61
2022/03/04 03:12:42;;;;;;;28.60;18.50;;;-1.40;99.90;;;;;;5114489;28;20181;-60
2022/03/04 03:15:09;;;;;;;29.40;18.47;;;-1.50;99.90;;;;;;5113817;28;20207;-62
2022/03/04 03:17:35;;;;;;;30.87;18.87;;;-1.60;99.90;;;;;;5114138;28;20179;-61
2022/03/04 03:20:02;;;;;;;25.60;18.17;;;-1.50;99.90;;;;;;5114403;28;20191;-61
2022/03/04 03:22:28;;;;;;;25.03;18.60;;;-1.70;99.90;;;;;;5114632;28;20172;-62
2022/03/04 03:24:54;;;;;;;28.20;18.67;;;-1.70;99.90;;;;;;5112729;28;20232;-62
2022/03/04 03:27:19;;;;;;;25.70;18.57;;;-1.80;99.90;;;;;;5114503;28;20745;-62
2022/03/04 03:29:45;;;;;;;28.97;19.70;;;-1.70;99.90;;;;;;5115808;28;20255;-63
2022/03/04 03:32:11;;;;;;;29.33;18.27;;;-1.70;99.90;;;;;;5116160;28;20188;-62
2022/03/04 03:34:38;;;;;;;22.83;16.57;;;-1.80;99.90;;;;;;5116947;28;20279;-62
2022/03/04 03:37:04;;;;;;;28.00;18.50;;;-1.80;99.90;;;;;;5114991;28;20212;-62
2022/03/04 03:39:30;;;;;;;28.87;19.07;;;-1.70;99.90;;;;;;5113935;28;20165;-63
2022/03/04 03:41:56;;;;;;;26.07;18.13;;;-1.80;99.90;;;;;;5113000;28;20177;-63
2022/03/04 03:44:21;;;;;;;25.83;18.30;;;-1.80;99.90;;;;;;5114081;28;20193;-63
2022/03/04 03:46:47;;;;;;;29.63;19.33;;;-1.90;99.90;;;;;;5114038;28;20168;-63
2022/03/04 03:49:13;;;;;;;32.57;19.07;;;-2.00;99.90;;;;;;5114016;28;20633;-63
2022/03/04 03:51:39;;;;;;;32.90;19.70;;;-2.00;99.90;;;;;;5113656;28;20200;-63
2022/03/04 03:54:04;;;;;;;30.67;19.80;;;-2.10;99.90;;;;;;5113582;28;20278;-63
2022/03/04 03:56:30;;;;;;;29.73;20.20;;;-2.10;99.90;;;;;;5116027;28;20544;-63
2022/03/04 03:58:56;;;;;;;33.10;19.77;;;-2.10;99.90;;;;;;5117497;28;20175;-63
2022/03/04 04:01:22;;;;;;;30.20;20.00;;;-2.20;99.90;;;;;;5116234;28;20214;-63
2022/03/04 04:03:48;;;;;;;31.13;19.53;;;-2.10;99.90;;;;;;5117202;28;20189;-63
2022/03/04 04:06:14;;;;;;;31.07;20.00;;;-2.10;99.90;;;;;;5117436;28;20165;-63
2022/03/04 04:08:41;;;;;;;31.70;18.50;;;-2.10;99.90;;;;;;5117563;28;20251;-63
2022/03/04 04:11:07;;;;;;;26.57;19.57;;;-2.10;99.90;;;;;;5117352;28;20173;-62
2022/03/04 04:13:33;;;;;;;30.47;20.17;;;-2.20;99.90;;;;;;5117128;27;20191;-62
2022/03/04 04:15:59;;;;;;;31.27;19.47;;;-2.10;99.90;;;;;;5117207;28;20275;-62
2022/03/04 04:18:25;;;;;;;29.70;18.47;;;-2.10;99.90;;;;;;5117639;28;20678;-62
2022/03/04 04:20:51;;;;;;;27.47;19.03;;;-2.10;99.90;;;;;;5116966;28;20165;-63
2022/03/04 04:23:17;;;;;;;28.87;19.67;;;-2.10;99.90;;;;;;5116967;28;20683;-62
2022/03/04 04:25:43;;;;;;;28.67;20.10;;;-2.10;99.90;;;;;;5115656;28;20177;-63
2022/03/04 04:28:09;;;;;;;31.83;20.53;;;-2.10;99.90;;;;;;5116969;28;20181;-63
2022/03/04 04:30:36;;;;;;;26.37;18.07;;;-2.10;99.90;;;;;;5115678;28;20550;-62
2022/03/04 04:33:02;;;;;;;27.77;19.37;;;-2.10;99.90;;;;;;5115498;28;20196;-62
2022/03/04 04:35:27;;;;;;;30.50;20.27;;;-2.10;99.90;;;;;;5116686;28;20249;-62
2022/03/04 04:37:54;;;;;;;30.13;20.67;;;-2.20;99.90;;;;;;5115497;28;20258;-62
2022/03/04 04:40:20;;;;;;;26.40;19.40;;;-2.20;99.90;;;;;;5117113;28;20165;-63
2022/03/04 04:42:46;;;;;;;28.93;19.57;;;-2.20;99.90;;;;;;5116785;28;20165;-62
2022/03/04 04:45:12;;;;;;;29.43;20.20;;;-2.20;99.90;;;;;;5116729;28;20718;-63
2022/03/04 04:47:37;;;;;;;32.07;19.97;;;-2.20;99.90;;;;;;5117167;28;20176;-61
2022/03/04 04:50:04;;;;;;;32.57;18.63;;;-2.30;99.90;;;;;;5116704;28;20176;-61
2022/03/04 04:52:29;;;;;;;27.93;19.33;;;-2.20;99.90;;;;;;5116829;28;20671;-64
2022/03/04 04:54:55;;;;;;;30.13;19.93;;;-2.20;99.90;;;;;;5117073;28;20192;-63
2022/03/04 04:57:22;;;;;;;30.33;20.23;;;-2.10;99.90;;;;;;5115123;28;20267;-62
2022/03/04 04:59:47;;;;;;;29.00;19.13;;;-2.10;99.90;;;;;;5115171;28;20161;-62
2022/03/04 05:02:13;;;;;;;32.60;20.03;;;-2.00;99.90;;;;;;5116383;28;20249;-62
2022/03/04 05:04:39;;;;;;;29.47;18.93;;;-2.20;99.90;;;;;;5115022;28;20568;-62
2022/03/04 05:07:05;;;;;;;30.37;21.37;;;-2.20;99.90;;;;;;5115364;28;20169;-63
2022/03/04 05:09:31;;;;;;;30.50;19.93;;;-2.30;99.90;;;;;;5115951;28;20173;-62
2022/03/04 05:11:56;;;;;;;31.03;19.57;;;-2.30;99.90;;;;;;5116104;28;20169;-63
2022/03/04 05:14:22;;;;;;;31.73;20.00;;;-2.30;99.90;;;;;;5115847;28;20192;-62
2022/03/04 05:16:48;;;;;;;31.77;20.03;;;-2.30;99.90;;;;;;5116390;28;20169;-62
2022/03/04 05:19:14;;;;;;;30.40;19.80;;;-2.40;99.90;;;;;;5116714;28;20243;-62
2022/03/04 05:21:39;;;;;;;31.37;21.77;;;-2.50;99.90;;;;;;5116203;28;20624;-62
2022/03/04 05:24:06;;;;;;;31.90;21.20;;;-2.50;99.90;;;;;;5115863;28;20187;-62
2022/03/04 05:26:37;;;;;;;29.83;20.77;;;-2.50;99.90;;;;;;5115855;28;20168;-62
2022/03/04 05:29:09;;;;;;;27.40;19.70;;;-2.50;99.90;;;;;;5115700;28;20160;-63
2022/03/04 05:31:35;;;;;;;30.93;19.90;;;-2.60;99.90;;;;;;5115646;28;20184;-62
2022/03/04 05:34:00;;;;;;;31.80;19.10;;;-2.70;99.90;;;;;;5115988;28;20611;-61
2022/03/04 05:36:26;;;;;;;33.53;20.70;;;-2.70;99.90;;;;;;5114202;28;20283;-62
2022/03/04 05:38:52;;;;;;;34.60;20.77;;;-2.70;99.90;;;;;;5115647;28;20507;-61
2022/03/04 05:41:18;;;;;;;28.50;19.10;;;-2.80;99.90;;;;;;5115381;28;20247;-62
2022/03/04 05:43:46;;;;;;;38.77;19.90;;;-2.90;99.90;;;;;;5113977;28;20196;-62
2022/03/04 05:46:13;;;;;;;33.30;20.90;;;-2.90;99.90;;;;;;5115787;28;20207;-62
2022/03/04 05:48:39;;;;;;;26.43;18.67;;;-2.90;99.90;;;;;;5115645;28;20172;-62
2022/03/04 05:51:05;;;;;;;30.60;19.30;;;-2.90;99.90;;;;;;5115811;28;20176;-62
2022/03/04 05:53:32;;;;;;;28.60;19.87;;;-2.90;99.90;;;;;;5115814;28;20223;-61
2022/03/04 05:55:59;;;;;;;26.30;19.20;;;-2.90;99.90;;;;;;5115104;28;20245;-62
2022/03/04 05:58:25;;;;;;;31.47;18.80;;;-2.90;99.90;;;;;;5115335;28;20573;-63
2022/03/04 06:00:51;;;;;;;28.47;18.87;;;-2.90;99.90;;;;;;5115461;28;20266;-62
2022/03/04 06:03:17;;;;;;;29.70;19.53;;;-2.90;99.90;;;;;;5115911;28;20247;-65
2022/03/04 06:05:43;;;;;;;29.23;18.70;;;-2.80;99.90;;;;;;5114945;28;20242;-62
2022/03/04 06:08:09;;;;;;;28.37;19.70;;;-2.70;99.90;;;;;;5115218;28;20176;-64
2022/03/04 06:10:35;;;;;;;32.43;19.43;;;-2.70;99.90;;;;;;5114830;28;20180;-63
2022/03/04 06:13:01;;;;;;;31.50;20.57;;;-2.70;99.90;;;;;;5115328;28;20255;-62
2022/03/04 06:15:27;;;;;;;32.17;21.60;;;-2.60;99.90;;;;;;5114579;28;20295;-63
2022/03/04 06:17:53;;;;;;;31.03;20.60;;;-2.70;99.90;;;;;;5113431;28;20176;-62
2022/03/04 06:20:19;;;;;;;29.93;19.67;;;-2.70;99.90;;;;;;5114957;27;20172;-62
2022/03/04 06:22:45;;;;;;;29.37;19.70;;;-2.70;99.90;;;;;;5114681;28;20172;-62
2022/03/04 06:25:13;;;;;;;31.47;20.20;;;-2.70;99.90;;;;;;5114670;28;20250;-62
2022/03/04 06:27:57;;;;;;;30.07;19.43;;;-2.70;99.90;;;;;;5114816;28;20208;-62
2022/03/04 06:30:25;;;;;;;32.13;20.27;;;-2.70;99.90;;;;;;5114749;28;20165;-62
2022/03/04 06:32:51;;;;;;;32.73;20.50;;;-2.70;99.90;;;;;;5114355;28;20180;-62
2022/03/04 06:35:17;;;;;;;30.27;19.80;;;-2.80;99.90;;;;;;5114086;28;20561;-62
2022/03/04 06:37:43;;;;;;;29.97;20.20;;;-2.70;99.90;;;;;;5114574;28;20167;-62
2022/03/04 06:40:10;;;;;;;30.70;19.83;;;-2.70;99.90;;;;;;5114240;28;20641;-62
2022/03/04 06:42:36;;;;;;;41.80;20.30;;;-2.80;99.90;;;;;;5114279;28;20169;-61
2022/03/04 06:45:02;;;;;;;32.67;21.47;;;-2.70;99.90;;;;;;5114218;28;20561;-62
2022/03/04 06:47:28;;;;;;;31.93;21.50;;;-2.70;99.90;;;;;;5114392;28;20183;-62
2022/03/04 06:49:53;;;;;;;33.37;21.10;;;-2.60;99.90;;;;;;5114062;28;20169;-62
2022/03/04 06:52:21;;;;;;;28.53;20.60;;;-2.70;99.90;;;;;;5114398;28;20176;-62
2022/03/04 06:54:47;;;;;;;28.43;19.67;;;-2.60;99.90;;;;;;5114135;28;20199;-63
2022/03/04 06:57:13;;;;;;;32.73;20.37;;;-2.60;99.90;;;;;;5113994;28;20179;-62
2022/03/04 06:59:39;;;;;;;28.10;19.00;;;-2.50;99.90;;;;;;5112724;28;20172;-61
2022/03/04 07:02:06;;;;;;;25.27;19.27;;;-2.50;99.90;;;;;;5113974;28;20172;-62
2022/03/04 07:04:32;;;;;;;30.43;19.80;;;-2.40;99.90;;;;;;5114082;28;20624;-63
2022/03/04 07:06:58;;;;;;;29.20;19.83;;;-2.40;99.90;;;;;;5114072;28;20164;-62
2022/03/04 07:09:24;;;;;;;29.83;21.27;;;-2.30;99.90;;;;;;5113889;28;20271;-62
2022/03/04 07:11:49;;;;;;;26.20;18.97;;;-2.20;99.90;;;;;;5113844;28;20590;-62
2022/03/04 07:14:15;;;;;;;32.03;20.67;;;-2.00;99.90;;;;;;5112467;28;20228;-62
2022/03/04 07:16:41;;;;;;;29.30;20.60;;;-1.90;99.90;;;;;;5114274;28;20271;-63
2022/03/04 07:19:07;;;;;;;28.73;20.37;;;-1.80;99.90;;;;;;5113837;28;20709;-62
2022/03/04 07:21:33;;;;;;;33.20;21.27;;;-1.70;99.90;;;;;;5113787;28;20640;-61
2022/03/04 07:23:59;;;;;;;28.60;20.03;;;-1.50;99.90;;;;;;5113944;28;20346;-61
2022/03/04 07:26:24;;;;;;;32.23;20.73;;;-1.40;99.90;;;;;;5113654;28;20208;-63
2022/03/04 07:28:50;;;;;;;29.47;21.53;;;-1.30;99.90;;;;;;5114009;28;20168;-62
2022/03/04 07:31:16;;;;;;;34.30;20.87;;;-1.20;99.90;;;;;;5115264;28;20562;-62
2022/03/04 07:33:42;;;;;;;30.10;19.90;;;-1.00;99.90;;;;;;5118314;28;20214;-61
2022/03/04 07:36:08;;;;;;;34.07;21.27;;;-0.90;99.90;;;;;;5118079;28;20198;-61
2022/03/04 07:38:34;;;;;;;32.00;20.77;;;-0.70;99.90;;;;;;5117856;28;20632;-62
2022/03/04 07:41:00;;;;;;;34.27;21.77;;;-0.50;99.90;;;;;;5118363;28;20176;-62
2022/03/04 07:43:26;;;;;;;33.03;22.43;;;-0.30;99.90;;;;;;5117828;28;20536;-62
2022/03/04 07:45:52;;;;;;;31.70;20.80;;;0.00;99.90;;;;;;5117648;28;20176;-62
2022/03/04 07:48:18;;;;;;;39.87;22.73;;;0.40;99.90;;;;;;5117856;28;20165;-62
2022/03/04 07:50:44;;;;;;;34.60;23.43;;;1.20;99.90;;;;;;5116224;28;20229;-62
2022/03/04 07:53:09;;;;;;;30.20;20.80;;;2.50;99.90;;;;;;5117484;27;20177;-61
2022/03/04 07:55:35;;;;;;;29.90;20.37;;;3.70;99.90;;;;;;5118197;28;20573;-61
2022/03/04 07:58:01;;;;;;;31.53;20.83;;;4.30;99.90;;;;;;5117946;28;20171;-62
2022/03/04 08:00:27;;;;;;;28.27;20.50;;;4.30;99.90;;;;;;5117706;27;20652;-62
2022/03/04 08:02:53;;;;;;;27.07;19.63;;;4.30;99.90;;;;;;5116121;28;20196;-62
2022/03/04 08:05:21;;;;;;;27.10;19.83;;;4.00;99.90;;;;;;5117253;28;20192;-67
2022/03/04 08:07:47;;;;;;;29.00;20.03;;;3.60;99.90;;;;;;5117280;28;20196;-62
2022/03/04 08:10:13;;;;;;;28.20;19.60;;;3.40;99.90;;;;;;5117216;28;20249;-62
2022/03/04 08:12:40;;;;;;;26.27;18.70;;;3.20;99.90;;;;;;5117133;28;20180;-63
2022/03/04 08:15:07;;;;;;;25.03;18.97;;;3.00;99.90;;;;;;5117185;28;20571;-62
2022/03/04 08:17:33;;;;;;;27.93;20.00;;;3.00;99.90;;;;;;5116927;28;20168;-62
2022/03/04 08:19:59;;;;;;;27.53;20.13;;;3.00;99.90;;;;;;5117204;28;20195;-62
2022/03/04 08:22:25;;;;;;;32.80;21.33;;;3.10;99.90;;;;;;5116979;28;20168;-63
2022/03/04 08:24:51;;;;;;;29.17;20.10;;;3.10;99.90;;;;;;5115524;28;20570;-62
2022/03/04 08:27:16;;;;;;;24.40;19.00;;;3.50;99.90;;;;;;5117428;28;20259;-62
2022/03/04 08:29:42;;;;;;;25.63;18.70;;;4.80;99.90;;;;;;5116777;28;20179;-62
2022/03/04 08:32:08;;;;;;;24.50;16.37;;;6.40;99.90;;;;;;5116671;28;20192;-63
2022/03/04 08:34:35;;;;;;;26.73;17.37;;;7.80;99.90;;;;;;5115243;28;20227;-63
2022/03/04 08:37:00;;;;;;;23.73;16.55;;;9.30;99.90;;;;;;5116930;28;20173;-63
2022/03/04 08:39:26;;;;;;;23.92;15.88;;;10.20;99.90;;;;;;5116582;28;20248;-63
2022/03/04 08:41:52;;;;;;;23.90;16.02;;;10.80;99.90;;;;;;5116670;28;20190;-60
2022/03/04 08:44:18;;;;;;;21.52;15.65;;;11.40;99.90;;;;;;5116789;28;20191;-61
2022/03/04 08:50:06;;;;;;;21.27;15.02;;;11.70;99.90;;;;;;5117001;28;20156;-62
2022/03/04 08:52:32;;;;;;;22.67;16.60;;;11.70;99.90;;;;;;5116878;28;20542;-61
2022/03/04 08:54:58;;;;;;;22.90;16.23;;;11.50;99.90;;;;;;5116241;28;20200;-61
2022/03/04 08:57:24;;;;;;;21.50;15.25;;;12.00;99.90;;;;;;5116601;28;20643;-61
2022/03/04 08:59:49;;;;;;;21.15;14.93;;;12.00;99.90;;;;;;5116278;28;20176;-62
2022/03/04 09:02:15;;;;;;;20.98;15.73;;;12.50;99.80;;;;;;5115149;28;20187;-60
2022/03/04 09:04:41;;;;;;;22.15;15.07;;;12.80;99.90;;;;;;5116044;28;20195;-61
2022/03/04 09:07:07;;;;;;;23.58;14.65;;;12.80;98.10;;;;;;5116169;28;20247;-60
2022/03/04 09:09:36;;;;;;;21.08;15.25;;;12.50;98.10;;;;;;5115955;28;20169;-61
2022/03/04 09:12:25;;;;;;;19.90;14.98;;;12.50;99.00;;;;;;5114779;28;20642;-61
2022/03/04 09:14:51;;;;;;;21.67;15.07;;;12.50;97.90;;;;;;5116030;28;20269;-61
2022/03/04 09:17:17;;;;;;;21.85;15.32;;;11.80;99.20;;;;;;5115957;27;20629;-61
2022/03/04 09:19:43;;;;;;;20.27;15.38;;;11.40;99.90;;;;;;5116020;28;20173;-60
2022/03/04 09:22:08;;;;;;;19.08;14.93;;;10.90;99.90;;;;;;5115982;28;20173;-60
2022/03/04 09:24:34;;;;;;;19.75;15.50;;;10.50;99.90;;;;;;5115975;28;20188;-60
2022/03/04 09:27:00;;;;;;;21.83;15.88;;;10.00;99.90;;;;;;5115758;28;20169;-61
2022/03/04 09:29:26;;;;;;;21.98;16.60;;;9.50;99.90;;;;;;5116062;28;20221;-60
2022/03/04 09:31:51;;;;;;;23.75;15.90;;;9.10;99.90;;;;;;5115695;28;20191;-60
2022/03/04 09:34:17;;;;;;;21.13;16.35;;;8.70;99.90;;;;;;5115519;28;20184;-60
2022/03/04 09:36:43;;;;;;;22.75;16.52;;;8.20;99.90;;;;;;5114076;28;20196;-59
2022/03/04 09:39:09;;;;;;;23.10;16.37;;;7.90;99.90;;;;;;5115431;28;20179;-60
2022/03/04 09:41:35;;;;;;;22.57;16.23;;;7.60;99.90;;;;;;5115382;28;20169;-60
2022/03/04 09:44:02;;;;;;;21.07;14.93;;;7.30;99.90;;;;;;5115430;28;20271;-61
2022/03/04 09:46:28;;;;;;;18.93;14.63;;;7.30;99.90;;;;;;5115664;28;20164;-60
2022/03/04 09:48:54;;;;;;;21.77;15.37;;;7.10;99.90;;;;;;5115267;28;20181;-63
2022/03/04 09:51:22;;;;;;;25.37;17.00;;;6.90;99.90;;;;;;5115687;28;20168;-60
2022/03/04 09:53:50;;;;;;;24.33;15.83;;;6.80;99.90;;;;;;5113173;28;20196;-62
2022/03/04 09:56:19;;;;;;;20.47;15.90;;;6.80;99.90;;;;;;5115049;28;20192;-60
2022/03/04 10:02:07;;;;;;;25.83;16.57;;;6.80;99.90;;;;;;5115313;28;20184;-60
2022/03/04 10:04:33;;;;;;;21.33;15.43;;;6.90;99.90;;;;;;5115382;28;20587;-60
2022/03/04 10:07:09;;;;;;;24.83;16.07;;;7.00;99.90;;;;;;5115576;28;20514;-60
2022/03/04 10:09:54;;;;;;;27.60;16.90;;;7.20;99.90;;;;;;5114912;28;20160;-60
2022/03/04 10:12:21;;;;;;;21.47;15.73;;;7.30;99.90;;;;;;5114788;27;20244;-60
2022/03/04 10:15:16;;;;;;;24.83;16.03;;;7.40;99.90;;;;;;5114764;28;20241;-60
2022/03/04 10:18:05;;;;;;;28.83;17.20;;;7.50;99.90;;;;;;5115256;28;20655;-61
2022/03/04 10:20:32;;;;;;;29.93;17.60;;;7.70;99.90;;;;;;5113595;28;20702;-60
2022/03/04 10:23:13;;;;;;;27.93;18.10;;;7.70;99.90;;;;;;5114608;28;20221;-61
2022/03/04 10:25:42;;;;;;;28.07;17.03;;;7.70;99.90;;;;;;5115087;28;20191;-60
2022/03/04 10:28:11;;;;;;;27.97;17.90;;;7.70;99.90;;;;;;5114561;28;20207;-60
2022/03/04 10:30:56;;;;;;;30.03;18.03;;;7.90;99.90;;;;;;5113161;28;20649;-60
2022/03/04 10:33:24;;;;;;;25.73;16.50;;;7.90;99.90;;;;;;5114448;28;20188;-60
2022/03/04 10:36:11;;;;;;;30.63;17.53;;;7.90;99.90;;;;;;5114384;28;20299;-63
2022/03/04 10:39:08;;;;;;;25.13;16.13;;;7.90;99.90;;;;;;5115117;27;20605;-60
2022/03/04 10:41:35;;;;;;;25.73;16.50;;;7.90;99.90;;;;;;5114651;28;20157;-62
2022/03/04 10:44:26;;;;;;;25.87;16.70;;;7.80;99.90;;;;;;5114215;28;20188;-61
2022/03/04 10:50:34;;;;;;;29.00;16.73;;;7.90;99.90;;;;;;5114570;28;20520;-61
2022/03/04 10:53:03;;;;;;;25.87;16.23;;;8.20;99.90;;;;;;5114501;28;20161;-62
2022/03/04 10:59:06;;;;;;;27.47;18.70;;;8.60;99.90;;;;;;5114412;28;20159;-61
2022/03/04 11:01:32;;;;;;;28.67;17.57;;;8.90;99.90;;;;;;5114448;28;20169;-61
2022/03/04 11:03:59;;;;;;;26.10;17.23;;;8.90;99.90;;;;;;5113860;28;20192;-60
2022/03/04 11:13:13;;;;;;;27.13;16.40;;;9.50;99.90;;;;;;5114270;28;20167;-60
2022/03/04 11:16:16;;;;;;;27.13;17.13;;;9.50;99.90;;;;;;5113856;28;20291;-60
2022/03/04 11:18:42;;;;;;;24.00;16.67;;;9.60;99.90;;;;;;5113975;28;20616;-61
2022/03/04 11:21:08;;;;;;;29.23;17.90;;;9.90;99.90;;;;;;5113935;28;20652;-60
2022/03/04 11:23:37;;;;;;;27.23;17.83;;;9.90;99.90;;;;;;5113776;28;20192;-60
2022/03/04 11:26:15;;;;;;;26.07;17.83;;;10.10;99.90;;;;;;5113619;28;20629;-60
2022/03/04 11:28:44;;;;;;;30.90;17.33;;;10.20;99.90;;;;;;5114048;28;20157;-60
2022/03/04 11:31:12;;;;;;;30.77;18.30;;;10.40;99.90;;;;;;5114486;28;20184;-60
2022/03/04 11:33:46;;;;;;;26.53;16.80;;;10.50;99.90;;;;;;5115262;28;20196;-61
2022/03/04 11:36:14;;;;;;;29.07;18.17;;;10.70;99.90;;;;;;5114173;28;20183;-62
2022/03/04 11:38:49;;;;;;;32.03;17.83;;;10.50;99.90;;;;;;5113938;28;20647;-60
2022/03/04 11:41:26;;;;;;;26.77;18.02;;;10.60;99.90;;;;;;5115064;28;20172;-61
2022/03/04 11:43:54;;;;;;;26.05;17.38;;;10.80;99.90;;;;;;5113085;28;20291;-61
2022/03/04 11:46:25;;;;;;;23.20;16.45;;;11.00;99.90;;;;;;5114721;28;20608;-62
2022/03/04 11:49:25;;;;;;;26.83;17.30;;;11.30;99.90;;;;;;5114536;28;20164;-63
2022/03/04 11:52:11;;;;;;;23.35;15.93;;;11.60;99.90;;;;;;5114091;28;20230;-61
2022/03/04 11:54:42;;;;;;;26.05;16.45;;;11.90;99.70;;;;;;5114485;28;20245;-62
2022/03/04 11:57:24;;;;;;;26.38;16.40;;;12.20;99.00;;;;;;5114043;28;20207;-63
2022/03/04 11:59:53;;;;;;;26.20;17.20;;;12.20;98.70;;;;;;5113243;28;20267;-61
2022/03/04 12:02:38;;;;;;;25.17;17.50;;;12.50;99.20;;;;;;5114065;28;20183;-61
2022/03/04 12:05:22;;;;;;;25.42;16.75;;;12.30;99.20;;;;;;5112406;28;20242;-62
2022/03/04 12:07:54;;;;;;;28.13;17.45;;;12.20;99.70;;;;;;5115104;28;20733;-62
2022/03/04 12:10:22;;;;;;;27.35;17.67;;;12.30;99.90;;;;;;5114706;28;20534;-62
2022/03/04 12:13:18;;;;;;;24.35;16.98;;;12.30;99.60;;;;;;5114378;28;20222;-63
2022/03/04 12:15:57;;;;;;;25.77;16.08;;;12.40;99.30;;;;;;5098470;28;20208;-63
2022/03/04 12:18:32;;;;;;;23.35;15.93;;;12.10;99.50;;;;;;5117018;28;20160;-63
2022/03/04 12:21:01;;;;;;;23.92;15.50;;;12.10;99.60;;;;;;5117386;28;20156;-64
2022/03/04 12:23:37;;;;;;;23.45;16.30;;;12.10;98.00;;;;;;5117111;28;20165;-64
2022/03/04 12:26:04;;;;;;;23.98;16.33;;;12.20;98.10;;;;;;5117064;28;20628;-63
2022/03/04 12:28:40;;;;;;;29.17;16.65;;;12.30;97.30;;;;;;5117262;28;20605;-64
2022/03/04 12:31:05;;;;;;;22.27;15.32;;;12.30;98.40;;;;;;5115544;28;20200;-62
2022/03/04 12:33:36;;;;;;;26.83;17.05;;;12.30;99.50;;;;;;5117265;28;20587;-63
2022/03/04 12:36:04;;;;;;;22.25;14.85;;;12.60;99.10;;;;;;5115489;28;20188;-63
2022/03/04 12:38:41;;;;;;;26.48;16.58;;;12.90;98.20;;;;;;5115533;28;20233;-62
2022/03/04 12:41:16;;;;;;;25.75;16.58;;;13.20;98.80;;;;;;5116991;28;20153;-62
2022/03/04 12:43:47;;;;;;;23.33;14.95;;;13.40;97.10;;;;;;5116724;28;20199;-63
2022/03/04 12:46:15;;;;;;;21.70;15.20;;;13.80;97.60;;;;;;5116980;28;20501;-63
2022/03/04 12:48:41;;;;;;;21.92;15.00;;;14.00;97.90;;;;;;5117157;28;20512;-62
2022/03/04 12:51:32;;;;;;;22.90;15.25;;;14.00;96.10;;;;;;5116664;27;20177;-63
2022/03/04 12:54:04;;;;;;;26.55;15.52;;;14.00;94.70;;;;;;5116606;28;20188;-62
2022/03/04 12:56:30;;;;;;;18.92;13.70;;;13.90;95.70;;;;;;5116572;28;20607;-62